createdAt,value
2023-02-12T00:01:18.586Z,19.70
2023-02-12T00:03:45.403Z,12.75
2023-02-12T00:06:15.446Z,12.55
2023-02-12T00:08:42.654Z,18.17
2023-02-12T00:11:18.415Z,18.65
2023-02-12T00:13:45.348Z,17.13
2023-02-12T00:16:15.297Z,13.48
2023-02-12T00:18:42.295Z,20.02
2023-02-12T00:21:09.085Z,10.88
2023-02-12T00:23:37.846Z,8.88
2023-02-12T00:26:09.230Z,14.65
2023-02-12T00:28:37.706Z,9.05
2023-02-12T00:31:06.609Z,11.60
2023-02-12T00:33:33.371Z,12.02
2023-02-12T00:36:00.130Z,12.93
2023-02-12T00:38:26.966Z,12.05
2023-02-12T00:40:53.817Z,19.15
2023-02-12T00:43:20.501Z,15.15
2023-02-12T00:45:47.745Z,13.00
2023-02-12T00:48:16.033Z,14.98
2023-02-12T00:50:46.018Z,15.60
2023-02-12T00:53:12.775Z,16.92
2023-02-12T00:55:39.630Z,17.95
2023-02-12T00:58:06.445Z,18.27
2023-02-12T01:00:34.013Z,21.10
2023-02-12T01:03:01.443Z,16.40
2023-02-12T01:05:28.364Z,19.95
2023-02-12T01:07:55.018Z,22.17
2023-02-12T01:10:22.000Z,16.05
2023-02-12T01:12:49.583Z,17.08
2023-02-12T01:15:17.939Z,19.02
2023-02-12T01:17:44.648Z,18.23
2023-02-12T01:20:17.590Z,24.70
2023-02-12T01:22:44.656Z,27.15
2023-02-12T01:25:12.089Z,22.88
2023-02-12T01:27:38.917Z,26.45
2023-02-12T01:30:09.607Z,21.25
2023-02-12T01:32:36.272Z,21.50
2023-02-12T01:35:04.109Z,23.42
2023-02-12T01:37:30.870Z,30.00
2023-02-12T01:39:57.553Z,25.58
2023-02-12T01:42:24.218Z,24.60
2023-02-12T01:45:13.039Z,27.42
2023-02-12T01:47:41.390Z,23.27
2023-02-12T01:50:19.080Z,21.38
2023-02-12T01:52:51.413Z,23.10
2023-02-12T01:55:20.353Z,22.60
2023-02-12T01:57:48.752Z,23.50
2023-02-12T02:00:21.812Z,22.88
2023-02-12T02:02:52.254Z,26.88
2023-02-12T02:05:30.945Z,26.77
2023-02-12T02:07:57.694Z,26.15
2023-02-12T02:10:25.868Z,26.75
2023-02-12T02:13:12.735Z,24.20
2023-02-12T02:15:43.236Z,22.65
2023-02-12T02:18:33.063Z,26.05
2023-02-12T02:21:31.948Z,22.10
2023-02-12T02:24:26.535Z,20.92
2023-02-12T02:27:21.484Z,27.98
2023-02-12T02:30:14.481Z,19.67
2023-02-12T02:32:55.066Z,23.17
2023-02-12T02:35:32.609Z,19.98
2023-02-12T02:38:24.226Z,25.20
2023-02-12T02:41:02.035Z,21.58
2023-02-12T02:43:35.197Z,17.92
2023-02-12T02:46:30.384Z,27.08
2023-02-12T02:49:04.572Z,25.00
2023-02-12T02:51:36.592Z,21.20
2023-02-12T02:56:44.733Z,20.23
2023-02-12T02:59:22.521Z,16.02
2023-02-12T03:01:56.445Z,25.52
2023-02-12T03:04:42.843Z,16.95
2023-02-12T03:07:11.507Z,17.88
2023-02-12T03:09:43.552Z,17.42
2023-02-12T03:15:15.973Z,18.52
2023-02-12T03:17:47.841Z,21.42
2023-02-12T03:20:22.331Z,15.88
2023-02-12T03:22:55.602Z,18.75
2023-02-12T03:25:30.540Z,15.60
2023-02-12T03:28:06.914Z,15.85
2023-02-12T03:30:48.336Z,23.23
2023-02-12T03:33:43.164Z,20.33
2023-02-12T03:36:17.215Z,24.95
2023-02-12T03:38:51.743Z,20.25
2023-02-12T03:41:28.996Z,18.30
2023-02-12T03:44:08.424Z,22.45
2023-02-12T03:46:43.185Z,24.05
2023-02-12T03:49:18.627Z,17.48
2023-02-12T03:51:45.788Z,18.70
2023-02-12T03:54:16.374Z,16.67
2023-02-12T03:56:52.404Z,17.27
2023-02-12T03:59:20.958Z,22.15
2023-02-12T04:01:50.061Z,20.77
2023-02-12T04:04:18.011Z,24.42
2023-02-12T04:06:47.772Z,18.80
2023-02-12T04:09:15.482Z,20.92
2023-02-12T04:12:00.413Z,22.55
2023-02-12T04:14:42.195Z,23.85
2023-02-12T04:17:32.584Z,23.00
2023-02-12T04:20:22.595Z,26.58
2023-02-12T04:23:17.194Z,20.85
2023-02-12T04:26:24.068Z,22.15
2023-02-12T04:28:59.928Z,19.77
2023-02-12T04:31:33.362Z,19.92
2023-02-12T04:34:08.647Z,23.10
2023-02-12T04:36:59.010Z,24.02
2023-02-12T04:39:31.250Z,22.85
2023-02-12T04:42:00.148Z,23.90
2023-02-12T04:44:30.741Z,28.30
2023-02-12T04:46:57.686Z,30.65
2023-02-12T04:49:25.006Z,24.27
2023-02-12T04:51:52.469Z,27.73
2023-02-12T04:54:21.629Z,32.88
2023-02-12T04:56:49.210Z,23.42
2023-02-12T04:59:16.555Z,23.23
2023-02-12T05:01:44.300Z,22.05
2023-02-12T05:04:13.676Z,24.83
2023-02-12T05:06:40.856Z,24.90
2023-02-12T05:09:09.921Z,24.83
2023-02-12T05:11:36.602Z,28.23
2023-02-12T05:14:03.227Z,27.10
2023-02-12T05:16:29.965Z,29.38
2023-02-12T05:18:57.557Z,30.80
2023-02-12T05:21:24.199Z,35.58
2023-02-12T05:23:50.964Z,30.38
2023-02-12T05:26:20.061Z,33.28
2023-02-12T05:28:47.398Z,33.50
2023-02-12T05:31:20.096Z,37.55
2023-02-12T05:33:49.100Z,28.73
2023-02-12T05:36:18.857Z,29.88
2023-02-12T05:38:46.062Z,29.65
2023-02-12T05:41:22.422Z,36.28
2023-02-12T05:43:50.103Z,36.30
2023-02-12T05:46:19.061Z,38.20
2023-02-12T05:48:46.519Z,33.40
2023-02-12T05:51:16.648Z,40.50
2023-02-12T05:53:43.551Z,39.55
2023-02-12T05:56:20.269Z,38.10
2023-02-12T05:58:49.348Z,34.63
2023-02-12T06:01:19.147Z,35.08
2023-02-12T06:03:45.862Z,41.42
2023-02-12T06:06:12.808Z,34.88
2023-02-12T06:08:39.787Z,42.58
2023-02-12T06:11:13.344Z,41.58
2023-02-12T06:13:40.071Z,40.38
2023-02-12T06:16:07.019Z,37.22
2023-02-12T06:18:35.788Z,39.50
2023-02-12T06:21:05.839Z,36.50
2023-02-12T06:23:32.573Z,49.10
2023-02-12T06:25:59.290Z,45.13
2023-02-12T06:28:26.006Z,47.50
2023-02-12T06:30:52.803Z,49.83
2023-02-12T06:33:19.590Z,44.08
2023-02-12T06:35:46.470Z,42.13
2023-02-12T06:38:13.181Z,46.08
2023-02-12T06:40:40.054Z,49.28
2023-02-12T06:43:06.840Z,58.97
2023-02-12T06:45:34.033Z,41.13
2023-02-12T06:48:00.763Z,42.80
2023-02-12T06:50:28.699Z,51.53
2023-02-12T06:52:55.341Z,43.58
2023-02-12T06:55:22.041Z,49.53
2023-02-12T06:57:48.696Z,47.50
2023-02-12T07:00:15.700Z,45.05
2023-02-12T07:02:42.372Z,37.83
2023-02-12T07:05:09.029Z,52.42
2023-02-12T07:07:35.719Z,41.03
2023-02-12T07:10:02.550Z,47.47
2023-02-12T07:12:29.222Z,47.67
2023-02-12T07:14:55.852Z,41.22
2023-02-12T07:17:22.606Z,37.13
2023-02-12T07:19:49.226Z,46.22
2023-02-12T07:22:16.008Z,46.40
2023-02-12T07:24:43.470Z,50.03
2023-02-12T07:27:10.235Z,46.72
2023-02-12T07:29:36.891Z,50.67
2023-02-12T07:32:03.798Z,41.72
2023-02-12T07:34:30.762Z,41.40
2023-02-12T07:36:57.419Z,47.88
2023-02-12T07:39:24.145Z,45.28
2023-02-12T07:41:50.889Z,44.20
2023-02-12T07:44:17.741Z,46.22
2023-02-12T07:46:48.519Z,42.25
2023-02-12T07:49:18.728Z,46.47
2023-02-12T07:51:45.829Z,39.17
2023-02-12T07:54:13.534Z,40.95
2023-02-12T07:56:41.908Z,39.67
2023-02-12T07:59:12.895Z,41.67
2023-02-12T08:01:50.672Z,37.40
2023-02-12T08:04:21.002Z,44.67
2023-02-12T08:06:50.994Z,42.05
2023-02-12T08:09:20.838Z,40.45
2023-02-12T08:11:47.627Z,37.63
2023-02-12T08:14:17.324Z,38.70
2023-02-12T08:16:45.569Z,45.78
2023-02-12T08:19:24.031Z,36.40
2023-02-12T08:21:54.733Z,39.60
2023-02-12T08:24:24.176Z,47.20
2023-02-12T08:26:51.197Z,45.10
2023-02-12T08:29:21.542Z,42.45
2023-02-12T08:31:50.105Z,48.13
2023-02-12T08:34:25.428Z,48.08
2023-02-12T08:36:56.451Z,39.47
2023-02-12T08:39:24.978Z,43.13
2023-02-12T08:41:53.834Z,48.60
2023-02-12T08:44:20.697Z,43.53
2023-02-12T08:46:50.608Z,43.58
2023-02-12T08:49:20.610Z,47.45
2023-02-12T08:51:49.591Z,46.33
2023-02-12T08:54:19.280Z,51.10
2023-02-12T08:56:45.999Z,50.00
2023-02-12T08:59:14.514Z,50.58
2023-02-12T09:01:42.265Z,54.42
2023-02-12T09:04:15.272Z,56.70
2023-02-12T09:06:41.986Z,54.00
2023-02-12T09:09:08.683Z,52.75
2023-02-12T09:11:35.937Z,57.35
2023-02-12T09:14:05.847Z,53.00
2023-02-12T09:16:34.802Z,46.17
2023-02-12T09:19:01.860Z,47.88
2023-02-12T09:21:28.698Z,47.90
2023-02-12T09:23:55.361Z,55.47
2023-02-12T09:26:25.653Z,46.03
2023-02-12T09:28:53.563Z,50.97
2023-02-12T09:31:31.127Z,44.83
2023-02-12T09:34:00.450Z,49.47
2023-02-12T09:36:27.609Z,43.33
2023-02-12T09:38:54.442Z,49.70
2023-02-12T09:41:21.070Z,42.20
2023-02-12T09:44:00.277Z,39.80
2023-02-12T09:47:01.278Z,40.33
2023-02-12T09:49:56.594Z,49.08
2023-02-12T09:52:27.656Z,40.45
2023-02-12T09:54:54.965Z,41.42
2023-02-12T09:57:31.255Z,37.58
2023-02-12T10:00:11.731Z,41.25
2023-02-12T10:02:40.036Z,46.17
2023-02-12T10:05:16.377Z,39.25
2023-02-12T10:07:42.996Z,45.28
2023-02-12T10:10:33.326Z,45.25
2023-02-12T10:13:05.034Z,41.25
2023-02-12T10:15:39.622Z,47.88
2023-02-12T10:18:33.625Z,39.70
2023-02-12T10:21:30.790Z,48.75
2023-02-12T10:24:29.957Z,43.28
2023-02-12T10:27:01.009Z,51.33
2023-02-12T10:29:33.853Z,43.72
2023-02-12T10:32:05.191Z,48.03
2023-02-12T10:34:36.808Z,50.00
2023-02-12T10:37:32.415Z,40.47
2023-02-12T10:40:23.119Z,43.80
2023-02-12T10:42:52.285Z,48.33
2023-02-12T10:45:23.130Z,49.22
2023-02-12T10:48:00.641Z,44.88
2023-02-12T10:50:52.053Z,44.58
2023-02-12T10:53:23.581Z,43.00
2023-02-12T10:55:50.407Z,46.45
2023-02-12T10:58:24.140Z,47.58
2023-02-12T11:00:58.594Z,39.45
2023-02-12T11:03:38.077Z,40.55
2023-02-12T11:06:18.331Z,39.38
2023-02-12T11:08:45.336Z,44.72
2023-02-12T11:11:16.333Z,39.67
2023-02-12T11:13:48.890Z,44.90
2023-02-12T11:16:44.029Z,44.03
2023-02-12T11:19:28.204Z,39.63
2023-02-12T11:22:19.277Z,43.72
2023-02-12T11:24:49.803Z,41.00
2023-02-12T11:27:16.420Z,46.45
2023-02-12T11:29:44.570Z,48.47
2023-02-12T11:32:19.397Z,44.17
2023-02-12T11:35:04.906Z,47.90
2023-02-12T11:37:36.342Z,46.78
2023-02-12T11:40:03.955Z,43.75
2023-02-12T11:42:37.985Z,51.90
2023-02-12T11:45:05.285Z,45.45
2023-02-12T11:47:36.210Z,46.25
2023-02-12T11:50:18.283Z,51.70
2023-02-12T11:52:50.033Z,55.38
2023-02-12T11:55:24.795Z,45.58
2023-02-12T11:57:54.345Z,49.20
2023-02-12T12:00:41.849Z,50.50
2023-02-12T12:03:20.545Z,49.53
2023-02-12T12:05:53.543Z,54.58
2023-02-12T12:08:29.342Z,54.15
2023-02-12T12:11:08.096Z,45.35
2023-02-12T12:13:40.661Z,49.95
2023-02-12T12:16:52.747Z,44.63
2023-02-12T12:19:52.347Z,52.35
2023-02-12T12:22:37.718Z,43.97
2023-02-12T12:25:20.831Z,46.70
2023-02-12T12:28:02.932Z,41.95
2023-02-12T12:30:48.177Z,40.85
2023-02-12T12:33:35.939Z,43.03
2023-02-12T12:36:30.910Z,36.70
2023-02-12T12:39:17.304Z,40.72
2023-02-12T12:42:02.422Z,36.58
2023-02-12T12:44:44.400Z,31.45
2023-02-12T12:47:34.701Z,34.58
2023-02-12T12:50:27.362Z,35.85
2023-02-12T12:55:52.947Z,27.27
2023-02-12T12:58:46.097Z,24.27
2023-02-12T13:01:24.245Z,22.25
2023-02-12T13:04:10.366Z,26.40
2023-02-12T13:07:06.693Z,21.95
2023-02-12T13:09:53.631Z,23.60
2023-02-12T13:13:00.775Z,26.15
2023-02-12T13:15:37.040Z,26.25
2023-02-12T13:18:13.088Z,22.17
2023-02-12T13:20:57.708Z,24.13
2023-02-12T13:23:50.861Z,26.83
2023-02-12T13:26:52.709Z,29.88
2023-02-12T13:29:20.892Z,23.88
2023-02-12T13:32:15.921Z,25.50
2023-02-12T13:34:44.408Z,25.65
2023-02-12T13:37:38.710Z,13.98
2023-02-12T13:40:08.178Z,13.25
2023-02-12T13:43:17.031Z,8.77
2023-02-12T13:46:19.538Z,8.65
2023-02-12T13:48:57.163Z,9.52
2023-02-12T13:51:44.880Z,7.78
2023-02-12T13:54:22.785Z,7.53
2023-02-12T13:56:57.630Z,9.40
2023-02-12T13:59:34.037Z,8.85
2023-02-12T14:02:47.819Z,9.68
2023-02-12T14:05:30.758Z,11.55
2023-02-12T14:08:01.838Z,7.45
2023-02-12T14:10:40.360Z,8.87
2023-02-12T14:13:17.994Z,9.02
2023-02-12T14:15:57.675Z,6.65
2023-02-12T14:18:27.345Z,7.88
2023-02-12T14:21:12.264Z,9.88
2023-02-12T14:23:43.773Z,7.55
2023-02-12T14:26:16.229Z,7.90
2023-02-12T14:28:54.897Z,9.57
2023-02-12T14:31:27.718Z,10.50
2023-02-12T14:34:07.433Z,9.77
2023-02-12T14:36:38.853Z,12.23
2023-02-12T14:39:28.888Z,18.95
2023-02-12T14:42:06.051Z,11.80
2023-02-12T14:44:35.802Z,11.25
2023-02-12T14:47:08.446Z,9.82
2023-02-12T14:49:49.038Z,9.75
2023-02-12T14:52:22.375Z,11.40
2023-02-12T14:54:53.925Z,7.80
2023-02-12T14:57:26.526Z,11.32
2023-02-12T15:00:04.231Z,10.75
2023-02-12T15:02:34.894Z,13.40
2023-02-12T15:05:20.280Z,10.63
2023-02-12T15:07:55.931Z,10.45
2023-02-12T15:10:27.674Z,9.68
2023-02-12T15:13:26.897Z,9.57
2023-02-12T15:16:08.148Z,9.77
2023-02-12T15:18:40.644Z,8.60
2023-02-12T15:21:13.578Z,8.27
2023-02-12T15:23:44.628Z,8.75
2023-02-12T15:26:17.893Z,8.45
2023-02-12T15:28:48.288Z,8.68
2023-02-12T15:31:20.512Z,7.25
2023-02-12T15:33:51.982Z,7.30
2023-02-12T15:36:22.163Z,8.43
2023-02-12T15:39:09.091Z,10.00
2023-02-12T15:41:39.123Z,9.98
2023-02-12T15:44:28.368Z,9.27
2023-02-12T15:47:02.776Z,10.60
2023-02-12T15:49:40.133Z,13.32
2023-02-12T15:52:11.387Z,9.35
2023-02-12T15:54:38.989Z,9.43
2023-02-12T15:57:14.497Z,10.10
2023-02-12T15:59:41.382Z,9.13
2023-02-12T16:02:19.184Z,9.25
2023-02-12T16:04:45.994Z,12.20
2023-02-12T16:07:13.806Z,10.23
2023-02-12T16:09:42.473Z,7.97
2023-02-12T16:12:14.172Z,10.38
2023-02-12T16:14:44.550Z,8.63
2023-02-12T16:17:22.187Z,12.57
2023-02-12T16:20:09.389Z,8.43
2023-02-12T16:22:45.193Z,9.20
2023-02-12T16:25:16.983Z,9.70
2023-02-12T16:27:51.492Z,7.70
2023-02-12T16:30:31.765Z,8.85
2023-02-12T16:32:58.855Z,10.23
2023-02-12T16:35:28.705Z,11.90
2023-02-12T16:38:27.485Z,7.63
2023-02-12T16:41:19.742Z,8.30
2023-02-12T16:44:21.688Z,6.47
2023-02-12T16:46:53.214Z,10.30
2023-02-12T16:49:23.046Z,10.35
2023-02-12T16:51:50.912Z,9.63
2023-02-12T16:54:33.361Z,24.80
2023-02-12T16:57:01.075Z,18.02
2023-02-12T16:59:28.246Z,14.63
2023-02-12T17:02:12.750Z,18.13
2023-02-12T17:04:39.822Z,14.27
2023-02-12T17:07:20.551Z,15.60
2023-02-12T17:09:47.474Z,16.77
2023-02-12T17:12:14.192Z,15.13
2023-02-12T17:14:41.096Z,15.48
2023-02-12T17:17:07.860Z,20.38
2023-02-12T17:19:34.570Z,15.38
2023-02-12T17:22:02.479Z,16.15
2023-02-12T17:24:31.705Z,17.52
2023-02-12T17:26:58.459Z,16.60
2023-02-12T17:29:26.682Z,17.88
2023-02-12T17:31:55.226Z,17.60
2023-02-12T17:34:23.349Z,17.60
2023-02-12T17:36:50.289Z,16.67
2023-02-12T17:39:17.604Z,20.75
2023-02-12T17:41:44.533Z,19.50
2023-02-12T17:44:13.221Z,18.33
2023-02-12T17:46:39.958Z,16.92
2023-02-12T17:49:06.917Z,20.70
2023-02-12T17:51:33.542Z,26.65
2023-02-12T17:54:00.903Z,19.42
2023-02-12T17:56:27.830Z,23.13
2023-02-12T17:58:54.559Z,20.92
2023-02-12T18:01:23.462Z,22.90
2023-02-12T18:03:53.205Z,25.58
2023-02-12T18:06:26.583Z,27.23
2023-02-12T18:08:53.912Z,23.98
2023-02-12T18:11:21.487Z,20.65
2023-02-12T18:13:51.326Z,26.40
2023-02-12T18:16:18.093Z,22.45
2023-02-12T18:18:44.942Z,18.33
2023-02-12T18:21:15.285Z,20.50
2023-02-12T18:23:42.666Z,21.30
2023-02-12T18:26:12.351Z,21.83
2023-02-12T18:28:39.695Z,20.80
2023-02-12T18:31:07.390Z,21.17
2023-02-12T18:33:35.041Z,23.20
2023-02-12T18:36:06.855Z,19.40
2023-02-12T18:38:35.623Z,22.20
2023-02-12T18:41:10.826Z,20.20
2023-02-12T18:43:38.000Z,22.42
2023-02-12T18:46:13.345Z,23.10
2023-02-12T18:48:40.451Z,19.42
2023-02-12T18:51:09.293Z,25.70
2023-02-12T18:53:35.991Z,20.25
2023-02-12T18:56:07.264Z,23.27
2023-02-12T18:58:34.236Z,21.08
2023-02-12T19:01:01.328Z,21.17
2023-02-12T19:03:27.972Z,27.02
2023-02-12T19:06:03.116Z,22.95
2023-02-12T19:08:29.841Z,25.90
2023-02-12T19:10:56.791Z,28.42
2023-02-12T19:13:23.742Z,21.38
2023-02-12T19:15:50.455Z,24.60
2023-02-12T19:18:17.929Z,24.92
2023-02-12T19:20:44.972Z,23.88
2023-02-12T19:23:11.911Z,23.05
2023-02-12T19:25:42.715Z,23.98
2023-02-12T19:28:10.985Z,19.98
2023-02-12T19:30:40.553Z,21.52
2023-02-12T19:33:07.900Z,20.80
2023-02-12T19:35:34.998Z,23.40
2023-02-12T19:38:01.784Z,24.67
2023-02-12T19:40:28.573Z,20.73
2023-02-12T19:42:55.257Z,19.75
2023-02-12T19:45:21.924Z,24.73
2023-02-12T19:47:50.688Z,21.58
2023-02-12T19:50:17.418Z,20.35
2023-02-12T19:52:44.159Z,21.55
2023-02-12T19:55:10.819Z,18.55
2023-02-12T19:57:38.524Z,24.38
2023-02-12T20:00:06.374Z,19.58
2023-02-12T20:02:34.039Z,24.35
2023-02-12T20:05:00.757Z,23.08
2023-02-12T20:07:27.445Z,24.40
2023-02-12T20:09:54.130Z,20.35
2023-02-12T20:12:20.784Z,20.33
2023-02-12T20:14:47.470Z,22.08
2023-02-12T20:17:14.551Z,21.35
2023-02-12T20:19:41.214Z,24.75
2023-02-12T20:22:07.919Z,18.20
2023-02-12T20:24:34.725Z,21.95
2023-02-12T20:27:02.535Z,22.48
2023-02-12T20:29:29.436Z,19.38
2023-02-12T20:31:56.241Z,22.15
2023-02-12T20:34:23.089Z,18.23
2023-02-12T20:36:49.925Z,18.73
2023-02-12T20:39:19.792Z,24.42
2023-02-12T20:41:47.410Z,25.85
2023-02-12T20:44:17.282Z,22.67
2023-02-12T20:46:50.654Z,26.80
2023-02-12T20:49:21.015Z,23.50
2023-02-12T20:51:49.786Z,22.77
2023-02-12T20:54:16.714Z,23.55
2023-02-12T20:56:43.428Z,24.55
2023-02-12T20:59:11.104Z,25.08
2023-02-12T21:01:40.688Z,25.25
2023-02-12T21:04:13.388Z,22.05
2023-02-12T21:06:41.464Z,23.38
2023-02-12T21:09:09.744Z,22.20
2023-02-12T21:11:37.145Z,26.80
2023-02-12T21:14:20.921Z,26.70
2023-02-12T21:16:49.036Z,27.55
2023-02-12T21:19:16.158Z,25.95
2023-02-12T21:21:46.649Z,24.58
2023-02-12T21:24:17.057Z,25.30
2023-02-12T21:26:44.294Z,27.15
2023-02-12T21:29:11.052Z,25.38
2023-02-12T21:31:40.594Z,28.30
2023-02-12T21:34:08.718Z,28.35
2023-02-12T21:36:41.112Z,27.85
2023-02-12T21:39:11.402Z,26.23
2023-02-12T21:41:39.507Z,25.50
2023-02-12T21:44:15.036Z,21.63
2023-02-12T21:46:42.419Z,24.63
2023-02-12T21:49:11.343Z,22.08
2023-02-12T21:51:41.104Z,27.00
2023-02-12T21:54:11.564Z,22.70
2023-02-12T21:56:42.550Z,20.10
2023-02-12T21:59:09.905Z,23.23
2023-02-12T22:01:39.549Z,23.67
2023-02-12T22:04:07.198Z,26.08
2023-02-12T22:06:37.971Z,22.13
2023-02-12T22:09:07.865Z,21.80
2023-02-12T22:11:36.246Z,26.38
2023-02-12T22:14:04.455Z,19.58
2023-02-12T22:16:31.862Z,19.15
2023-02-12T22:19:01.640Z,18.65
2023-02-12T22:21:30.307Z,24.15
2023-02-12T22:23:59.745Z,22.85
2023-02-12T22:26:28.748Z,20.45
2023-02-12T22:28:57.740Z,23.73
2023-02-12T22:31:29.051Z,22.83
2023-02-12T22:33:58.764Z,21.42
2023-02-12T22:36:26.380Z,26.05
2023-02-12T22:38:55.414Z,27.60
2023-02-12T22:41:22.195Z,24.45
2023-02-12T22:43:49.636Z,24.15
2023-02-12T22:46:16.925Z,25.23
2023-02-12T22:48:44.110Z,26.65
2023-02-12T22:51:23.598Z,22.85
2023-02-12T22:53:50.970Z,28.38
2023-02-12T22:56:17.846Z,25.50
2023-02-12T22:58:44.648Z,31.38
2023-02-12T23:01:13.945Z,26.90
2023-02-12T23:03:41.314Z,28.65
2023-02-12T23:06:12.100Z,23.65
2023-02-12T23:08:39.165Z,26.98
2023-02-12T23:11:07.185Z,28.05
2023-02-12T23:13:36.346Z,30.45
2023-02-12T23:16:03.474Z,32.63
2023-02-12T23:18:30.572Z,26.77
2023-02-12T23:20:57.835Z,29.27
2023-02-12T23:23:25.091Z,28.20
2023-02-12T23:25:53.845Z,26.13
2023-02-12T23:28:21.676Z,25.60
2023-02-12T23:30:50.331Z,27.92
2023-02-12T23:33:17.192Z,26.90
2023-02-12T23:35:44.648Z,28.52
2023-02-12T23:38:12.111Z,27.23
2023-02-12T23:40:40.238Z,26.63
2023-02-12T23:43:07.016Z,28.65
2023-02-12T23:45:33.701Z,28.48
2023-02-12T23:48:00.755Z,27.90
2023-02-12T23:50:27.430Z,28.73
2023-02-12T23:52:54.115Z,28.33
2023-02-12T23:55:21.242Z,27.30
2023-02-12T23:57:49.612Z,24.67
